Time;durP1;ratioP1;P1;durP2;ratioP2;P2;SDS_P1;SDS_P2;PMS_P1;PMS_P2;Temp;Humidity;BMP_temperature;BMP_pressure;BME280_temperature;BME280_humidity;BME280_pressure;Samples;Min_cycle;Max_cycle;Signal;HPM_P1;HPM_P2
2023/10/19 00:00:38;;;;;;;12.50;7.20;;;;;;;10.66;65.60;100089.16;7394026;19;20372;-63
2023/10/19 00:03:07;;;;;;;12.57;7.40;;;;;;;10.77;65.64;100085.59;7397159;19;20014;-64
2023/10/19 00:05:35;;;;;;;11.10;7.15;;;;;;;10.80;65.84;100084.47;7396808;19;20034;-63
2023/10/19 00:10:45;;;;;;;11.43;7.03;;;;;;;10.80;66.84;100076.53;7396067;19;20341;-63
2023/10/19 00:13:14;;;;;;;13.18;7.38;;;;;;;10.76;67.40;100069.81;7395012;19;20479;-63
2023/10/19 00:15:51;;;;;;;11.63;7.47;;;;;;;10.78;67.62;100074.03;7396968;19;20416;-64
2023/10/19 00:18:24;;;;;;;11.20;7.40;;;;;;;10.69;68.96;100066.88;7396200;19;20018;-64
2023/10/19 00:20:59;;;;;;;12.07;7.82;;;;;;;10.67;69.43;100063.50;7395252;19;20886;-63
2023/10/19 00:23:34;;;;;;;10.60;7.57;;;;;;;10.62;69.97;100063.91;7395059;19;20100;-65
2023/10/19 00:26:15;;;;;;;12.02;8.10;;;;;;;10.59;70.51;100060.69;7395673;19;20058;-65
2023/10/19 00:28:45;;;;;;;14.82;8.38;;;;;;;10.48;71.59;100054.47;7395651;19;20123;-65
2023/10/19 00:31:13;;;;;;;13.65;8.35;;;;;;;10.45;72.04;100060.06;7394985;19;20014;-64
2023/10/19 00:33:41;;;;;;;11.20;8.07;;;;;;;10.45;72.15;100057.41;7392415;19;20022;-64
2023/10/19 00:36:12;;;;;;;13.70;9.18;;;;;;;10.44;72.70;100058.34;7396337;19;20015;-64
2023/10/19 00:38:52;;;;;;;11.85;8.55;;;;;;;10.41;73.16;100050.66;7395005;19;20018;-63
2023/10/19 00:41:29;;;;;;;14.55;8.05;;;;;;;10.38;73.63;100045.66;7395897;19;20509;-64
2023/10/19 00:44:10;;;;;;;13.00;8.57;;;;;;;10.33;73.75;100044.34;7394854;19;20018;-64
2023/10/19 00:49:09;;;;;;;12.90;8.63;;;;;;;10.26;74.32;100030.78;7391862;19;20488;-64
2023/10/19 00:54:33;;;;;;;14.27;9.07;;;;;;;10.20;75.06;100021.53;7396019;19;20018;-65
2023/10/19 00:57:10;;;;;;;15.27;9.20;;;;;;;10.15;75.34;100018.44;7395522;19;20393;-65
2023/10/19 00:59:43;;;;;;;14.90;9.80;;;;;;;10.16;75.33;100024.56;7391648;19;20031;-65
2023/10/19 01:02:21;;;;;;;13.97;9.77;;;;;;;10.15;75.31;100017.59;7394806;19;20018;-66
2023/10/19 01:04:55;;;;;;;14.23;9.82;;;;;;;10.20;75.31;100013.59;7395494;19;20332;-66
2023/10/19 01:10:00;;;;;;;13.23;9.73;;;;;;;10.18;75.39;100012.03;7391902;19;20021;-62
2023/10/19 01:15:19;;;;;;;14.80;9.25;;;;;;;10.18;75.92;99991.72;7395514;19;20044;-60
2023/10/19 01:17:52;;;;;;;13.13;9.32;;;;;;;10.08;76.22;99988.19;7394400;19;20039;-63
2023/10/19 01:23:26;;;;;;;13.35;9.63;;;;;;;9.95;76.84;99992.81;7394896;19;19982;-62
2023/10/19 01:28:28;;;;;;;15.90;9.75;;;;;;;10.07;76.55;99985.66;7393256;19;20372;-63
2023/10/19 01:30:56;;;;;;;13.80;10.13;;;;;;;10.05;76.05;99975.22;7391984;19;20023;-63
2023/10/19 01:33:24;;;;;;;13.23;9.80;;;;;;;10.00;76.40;99980.88;7393101;19;20251;-63
2023/10/19 01:38:38;;;;;;;14.00;9.98;;;;;;;10.01;76.86;99968.50;7392886;19;20039;-65
2023/10/19 01:41:13;;;;;;;15.45;9.73;;;;;;;10.04;76.22;99960.31;7390736;19;20022;-65
2023/10/19 01:43:42;;;;;;;14.52;9.80;;;;;;;10.00;76.48;99953.59;7394048;19;20026;-61
2023/10/19 01:46:12;;;;;;;15.40;10.68;;;;;;;9.97;76.80;99952.03;7391947;19;20019;-61
2023/10/19 01:48:41;;;;;;;13.90;10.82;;;;;;;9.98;76.59;99934.38;7392458;19;20025;-64
2023/10/19 01:51:11;;;;;;;13.77;10.15;;;;;;;9.93;76.62;99937.41;7393027;19;20018;-64
2023/10/19 01:53:44;;;;;;;14.15;10.55;;;;;;;9.93;76.67;99931.28;7390262;19;20024;-64
2023/10/19 01:56:14;;;;;;;17.48;11.15;;;;;;;9.93;77.01;99931.28;7391802;19;20412;-65
2023/10/19 01:58:43;;;;;;;18.85;11.68;;;;;;;9.88;76.93;99907.00;7392792;19;20024;-63
2023/10/19 02:03:42;;;;;;;19.13;11.75;;;;;;;9.85;77.16;99908.13;7391993;19;20010;-64
2023/10/19 02:06:20;;;;;;;19.05;12.02;;;;;;;9.83;77.55;99903.94;7391511;19;20015;-64
2023/10/19 02:08:51;;;;;;;20.33;12.38;;;;;;;9.86;77.37;99898.38;7388157;19;20025;-64
2023/10/19 02:11:23;;;;;;;19.15;12.23;;;;;;;9.90;77.38;99905.09;7391413;19;20090;-64
2023/10/19 02:13:56;;;;;;;22.13;13.00;;;;;;;9.88;77.45;99891.16;7389432;19;20025;-64
2023/10/19 02:16:25;;;;;;;22.35;12.95;;;;;;;9.86;77.50;99888.63;7391106;19;20025;-66
2023/10/19 02:18:53;;;;;;;21.05;12.57;;;;;;;9.89;77.27;99883.09;7390529;19;20015;-65
2023/10/19 02:21:27;;;;;;;21.45;13.05;;;;;;;9.87;77.07;99878.91;7392514;19;20022;-65
2023/10/19 02:23:54;;;;;;;;;;;;;;;9.70;78.05;99877.69;7392706;19;20527;-63
2023/10/19 02:26:30;;;;;;;21.75;13.43;;;;;;;9.68;78.22;99869.03;7391987;19;19930;-63
2023/10/19 02:28:58;;;;;;;18.67;12.70;;;;;;;9.75;78.05;99868.38;7388780;19;20010;-60
2023/10/19 02:31:26;;;;;;;20.75;12.75;;;;;;;9.82;77.92;99865.25;7391056;19;20043;-63
2023/10/19 02:34:00;;;;;;;21.33;13.50;;;;;;;9.85;77.45;99865.81;7390478;19;20014;-65
2023/10/19 02:36:30;;;;;;;20.02;12.70;;;;;;;9.85;77.79;99860.53;7392265;19;20010;-65
2023/10/19 02:39:00;;;;;;;20.70;13.10;;;;;;;9.85;77.60;99857.88;7389932;19;20023;-64
2023/10/19 02:41:28;;;;;;;19.63;13.13;;;;;;;9.83;77.80;99859.81;7390535;19;20039;-66
2023/10/19 02:46:59;;;;;;;18.77;13.32;;;;;;;9.86;77.53;99848.16;7389983;19;20467;-63
2023/10/19 02:49:29;;;;;;;19.80;12.85;;;;;;;9.83;77.75;99851.88;7391033;19;20047;-63
2023/10/19 02:52:03;;;;;;;20.13;13.38;;;;;;;9.82;77.74;99849.38;7395440;19;20092;-60
2023/10/19 02:54:34;;;;;;;16.60;11.85;;;;;;;9.79;77.70;99850.47;7390185;19;20044;-63
2023/10/19 02:57:06;;;;;;;17.58;12.23;;;;;;;9.86;77.46;99856.06;7391651;19;20019;-64
2023/10/19 02:59:35;;;;;;;17.52;12.75;;;;;;;9.83;77.74;99853.69;7388897;19;20021;-64
2023/10/19 03:04:43;;;;;;;19.20;12.77;;;;;;;9.80;77.69;99851.28;7392678;19;20030;-63
2023/10/19 03:07:15;;;;;;;18.00;13.02;;;;;;;9.79;78.17;99853.09;7391473;19;20373;-62
2023/10/19 03:09:49;;;;;;;16.83;11.80;;;;;;;9.76;77.97;99840.97;7387651;19;20025;-62
2023/10/19 03:12:17;;;;;;;;;;;;;;;9.60;78.65;99845.06;7394109;19;20023;-62
2023/10/19 03:14:48;;;;;;;16.80;12.07;;;;;;;9.62;78.90;99838.69;7389844;19;19923;-61
2023/10/19 03:17:15;;;;;;;18.25;12.55;;;;;;;9.82;77.87;99844.09;7391646;19;20015;-61
2023/10/19 03:19:44;;;;;;;16.85;12.65;;;;;;;9.77;78.01;99844.47;7387927;19;20015;-61
2023/10/19 03:22:12;;;;;;;19.27;13.00;;;;;;;9.80;78.06;99840.72;7391566;19;20025;-62
2023/10/19 03:24:43;;;;;;;17.73;12.85;;;;;;;9.76;78.25;99824.28;7393384;19;20027;-61
2023/10/19 03:27:15;;;;;;;17.75;13.15;;;;;;;9.72;78.00;99812.28;7392611;19;20381;-60
2023/10/19 03:30:20;;;;;;;22.80;15.18;;;;;;;9.65;78.36;99803.19;7386650;19;20043;-60
2023/10/19 03:32:40;;;;;;;20.02;14.15;;;;;;;9.59;78.58;99791.38;7390343;19;20021;-60
2023/10/19 03:35:08;;;;;;;20.17;13.93;;;;;;;9.63;78.75;99795.41;7390207;19;20448;-59
2023/10/19 03:37:36;;;;;;;17.55;13.25;;;;;;;9.68;78.53;99797.66;7388981;19;20014;-62
2023/10/19 03:40:14;;;;;;;20.02;14.23;;;;;;;9.65;78.42;99788.19;7386965;19;20041;-60
2023/10/19 03:42:43;;;;;;;18.55;13.98;;;;;;;9.61;78.50;99788.56;7390164;19;20015;-60
2023/10/19 03:45:13;;;;;;;18.88;13.88;;;;;;;9.60;78.45;99793.03;7390051;19;20056;-60
2023/10/19 03:47:44;;;;;;;17.88;13.45;;;;;;;9.59;78.45;99796.66;7389901;19;20093;-60
2023/10/19 03:50:14;;;;;;;20.23;14.30;;;;;;;9.61;78.55;99807.06;7388810;19;20021;-59
2023/10/19 03:52:42;;;;;;;17.75;13.30;;;;;;;9.60;78.46;99802.78;7390361;19;20052;-60
2023/10/19 03:55:18;;;;;;;17.70;13.50;;;;;;;9.58;78.38;99805.56;7390065;19;20375;-60
2023/10/19 03:57:50;;;;;;;18.40;13.57;;;;;;;9.53;79.01;99805.91;7390249;19;20030;-60
2023/10/19 04:00:24;;;;;;;19.52;14.00;;;;;;;9.56;78.55;99790.78;7394262;19;20014;-64
2023/10/19 04:02:55;;;;;;;18.08;13.52;;;;;;;9.53;78.73;99771.56;7396260;19;20033;-64
2023/10/19 04:05:25;;;;;;;19.13;13.27;;;;;;;9.58;78.34;99780.91;7397916;19;20377;-65
2023/10/19 04:07:55;;;;;;;18.75;13.75;;;;;;;9.58;78.74;99781.75;7397106;19;20026;-65
2023/10/19 04:10:29;;;;;;;17.40;13.50;;;;;;;9.56;78.68;99781.03;7395432;19;20508;-64
2023/10/19 04:13:00;;;;;;;18.25;14.00;;;;;;;9.52;79.04;99780.47;7398012;19;20014;-64
2023/10/19 04:15:29;;;;;;;19.15;14.25;;;;;;;9.52;78.77;99783.09;7397047;19;20373;-64
2023/10/19 04:18:00;;;;;;;18.27;14.02;;;;;;;9.49;78.96;99783.38;7396767;19;20515;-64
2023/10/19 04:23:28;;;;;;;20.90;14.57;;;;;;;9.43;78.95;99769.84;7396099;19;20486;-64
2023/10/19 04:25:56;;;;;;;19.25;14.00;;;;;;;9.43;79.02;99760.13;7396407;19;20495;-65
2023/10/19 04:31:14;;;;;;;19.75;14.35;;;;;;;9.46;79.02;99761.63;7394944;19;20035;-66
2023/10/19 04:33:49;;;;;;;21.20;15.02;;;;;;;9.47;78.85;99760.69;7395305;19;20022;-64
2023/10/19 04:36:21;;;;;;;20.98;14.60;;;;;;;9.43;79.15;99754.84;7396488;19;20029;-64
2023/10/19 04:38:48;;;;;;;18.85;14.25;;;;;;;9.43;79.15;99754.84;7394716;19;20022;-64
2023/10/19 04:41:16;;;;;;;22.83;15.80;;;;;;;9.51;78.80;99757.66;7396625;19;20103;-64
2023/10/19 04:43:49;;;;;;;20.10;15.25;;;;;;;9.52;78.50;99745.28;7396170;19;20050;-64
2023/10/19 04:46:18;;;;;;;20.60;14.63;;;;;;;9.49;79.14;99745.53;7396207;19;20382;-60
2023/10/19 04:48:46;;;;;;;20.88;15.10;;;;;;;9.52;78.95;99738.19;7394906;19;20022;-61
2023/10/19 04:51:14;;;;;;;23.98;16.55;;;;;;;9.53;79.15;99736.38;7394659;19;20018;-61
2023/10/19 04:53:42;;;;;;;20.27;15.00;;;;;;;9.53;78.97;99734.56;7393313;19;20040;-62
2023/10/19 04:56:09;;;;;;;23.08;16.58;;;;;;;9.51;79.12;99752.38;7395260;19;20491;-61
2023/10/19 04:58:37;;;;;;;22.40;15.65;;;;;;;9.53;78.98;99750.41;7394734;19;20035;-61
2023/10/19 05:01:05;;;;;;;22.60;15.75;;;;;;;9.56;79.07;99753.78;7393884;19;20426;-61
2023/10/19 05:03:32;;;;;;;21.27;15.00;;;;;;;9.64;78.78;99751.31;7395142;19;20433;-61
2023/10/19 05:06:01;;;;;;;22.13;15.73;;;;;;;9.59;78.86;99745.59;7395177;19;20022;-61
2023/10/19 05:08:29;;;;;;;19.70;14.23;;;;;;;9.56;79.39;99740.56;7392861;19;20039;-61
2023/10/19 05:10:59;;;;;;;24.30;15.25;;;;;;;9.51;79.18;99741.81;7393477;19;20007;-61
2023/10/19 05:13:27;;;;;;;20.48;15.07;;;;;;;9.58;79.21;99751.81;7394503;19;20029;-61
2023/10/19 05:15:56;;;;;;;20.30;14.65;;;;;;;9.61;79.11;99751.56;7395149;19;20014;-62
2023/10/19 05:18:23;;;;;;;21.05;14.25;;;;;;;9.57;79.39;99750.16;7393139;19;20022;-61
2023/10/19 05:20:55;;;;;;;20.33;14.82;;;;;;;9.61;79.33;99741.00;7393430;19;20019;-61
2023/10/19 05:23:24;;;;;;;22.70;14.70;;;;;;;9.65;79.10;99753.81;7394939;19;20025;-61
2023/10/19 05:25:53;;;;;;;19.08;13.70;;;;;;;9.60;79.51;99744.63;7394584;19;20022;-61
2023/10/19 05:28:21;;;;;;;20.73;14.68;;;;;;;9.60;79.30;99741.97;7393952;19;20428;-61
2023/10/19 05:30:50;;;;;;;19.30;14.57;;;;;;;9.58;79.48;99743.91;7393227;19;20045;-60
2023/10/19 05:33:20;;;;;;;18.80;14.20;;;;;;;9.57;79.33;99740.41;7394451;19;20025;-61
2023/10/19 05:35:48;;;;;;;19.08;13.77;;;;;;;9.50;79.45;99745.41;7394303;19;20030;-61
2023/10/19 05:38:19;;;;;;;17.65;14.02;;;;;;;9.50;79.44;99741.91;7393664;19;20018;-63
2023/10/19 05:40:47;;;;;;;19.35;13.40;;;;;;;9.51;79.71;99740.97;7391434;19;20077;-61
2023/10/19 05:43:15;;;;;;;20.23;13.98;;;;;;;9.56;79.50;99737.94;7392891;19;20023;-62
2023/10/19 05:45:43;;;;;;;19.60;14.10;;;;;;;9.55;79.33;99741.53;7393442;19;20035;-64
2023/10/19 05:48:11;;;;;;;22.05;14.57;;;;;;;9.57;79.57;99742.22;7393314;19;20022;-63
2023/10/19 05:50:39;;;;;;;20.27;13.73;;;;;;;9.56;79.62;99737.94;7392651;19;20018;-63
2023/10/19 05:53:06;;;;;;;21.67;14.45;;;;;;;9.61;79.49;99738.34;7393550;19;20043;-63
2023/10/19 05:55:35;;;;;;;19.95;13.52;;;;;;;9.57;79.59;99734.31;7391729;19;20022;-63
2023/10/19 05:58:04;;;;;;;20.42;13.30;;;;;;;9.58;79.25;99739.47;7393710;19;20022;-63
2023/10/19 06:00:31;;;;;;;18.25;13.20;;;;;;;9.58;79.11;99730.69;7392402;19;20032;-63
2023/10/19 06:02:59;;;;;;;17.05;11.82;;;;;;;9.59;79.25;99733.22;7392831;19;20018;-63
2023/10/19 06:05:27;;;;;;;16.38;11.68;;;;;;;9.48;79.61;99742.06;7393714;19;20499;-63
2023/10/19 06:07:55;;;;;;;18.42;12.52;;;;;;;9.52;79.32;99748.75;7393160;19;20029;-65
2023/10/19 06:10:23;;;;;;;17.67;12.18;;;;;;;9.43;79.82;99741.63;7391372;19;20022;-66
2023/10/19 06:12:52;;;;;;;18.80;12.43;;;;;;;9.46;79.77;99743.16;7393248;19;20090;-66
2023/10/19 06:15:22;;;;;;;19.10;12.80;;;;;;;9.53;79.72;99739.00;7391581;19;20026;-66
2023/10/19 06:17:49;;;;;;;16.65;11.88;;;;;;;9.51;79.98;99740.97;7392439;19;20018;-65
2023/10/19 06:20:23;;;;;;;16.23;11.65;;;;;;;9.46;79.77;99743.16;7391103;19;20014;-65
2023/10/19 06:22:56;;;;;;;18.35;12.38;;;;;;;9.49;79.92;99733.16;7391445;19;20018;-65
2023/10/19 06:25:24;;;;;;;17.00;12.98;;;;;;;9.48;79.88;99735.94;7392824;19;20015;-67
2023/10/19 06:27:53;;;;;;;15.57;11.15;;;;;;;9.49;79.75;99721.75;7392511;19;20109;-65
2023/10/19 06:30:22;;;;;;;15.27;11.23;;;;;;;9.45;80.04;99730.91;7391252;19;20018;-67
2023/10/19 06:32:55;;;;;;;18.02;11.50;;;;;;;9.48;79.93;99731.47;7392767;19;20025;-66
2023/10/19 06:35:23;;;;;;;17.27;11.20;;;;;;;9.45;80.05;99736.19;7390965;19;20015;-66
2023/10/19 06:37:53;;;;;;;17.80;11.40;;;;;;;9.47;79.95;99740.38;7391770;19;20018;-66
2023/10/19 06:40:22;;;;;;;22.38;15.48;;;;;;;9.53;79.90;99739.84;7391417;19;20359;-66
2023/10/19 06:42:58;;;;;;;16.23;11.00;;;;;;;9.48;79.91;99722.72;7388699;19;20494;-66
2023/10/19 06:45:26;;;;;;;16.60;10.95;;;;;;;9.46;80.02;99732.56;7391912;19;20027;-66
2023/10/19 06:47:54;;;;;;;17.90;11.27;;;;;;;9.49;80.33;99730.50;7387292;19;20471;-66
2023/10/19 06:50:23;;;;;;;23.60;16.13;;;;;;;9.45;80.46;99736.19;7390786;19;20018;-66
2023/10/19 06:52:51;;;;;;;21.52;15.43;;;;;;;9.46;80.34;99727.28;7391905;19;20017;-66
2023/10/19 06:55:22;;;;;;;20.10;14.05;;;;;;;9.51;79.91;99733.88;7390176;19;20030;-67
2023/10/19 06:57:55;;;;;;;18.63;12.32;;;;;;;9.59;79.81;99740.31;7389872;19;20059;-67
2023/10/19 07:00:27;;;;;;;17.42;11.55;;;;;;;9.60;79.75;99728.75;7390219;19;20019;-66
2023/10/19 07:02:57;;;;;;;16.30;10.80;;;;;;;9.58;79.73;99728.03;7392023;19;20018;-66
2023/10/19 07:05:25;;;;;;;15.80;10.95;;;;;;;9.53;79.72;99733.72;7391139;19;20036;-66
2023/10/19 07:07:56;;;;;;;14.05;9.57;;;;;;;9.57;79.49;99731.66;7389198;19;20022;-66
2023/10/19 07:10:23;;;;;;;12.68;9.48;;;;;;;9.51;79.83;99720.66;7389709;19;20023;-66
2023/10/19 07:12:53;;;;;;;13.65;9.30;;;;;;;9.51;79.58;99719.81;7391425;19;20105;-66
2023/10/19 07:15:23;;;;;;;15.85;9.05;;;;;;;9.47;80.02;99718.41;7389211;19;20022;-66
2023/10/19 07:17:54;;;;;;;14.00;8.88;;;;;;;9.52;79.81;99724.13;7390566;19;20018;-67
2023/10/19 07:20:25;;;;;;;12.63;9.75;;;;;;;9.49;79.94;99729.69;7390087;19;20011;-67
2023/10/19 07:23:18;;;;;;;13.75;9.65;;;;;;;9.51;80.13;99725.13;7390787;19;20022;-67
2023/10/19 07:25:48;;;;;;;13.77;8.93;;;;;;;9.57;79.84;99729.84;7390019;19;20378;-67
2023/10/19 07:28:16;;;;;;;14.13;8.98;;;;;;;9.57;80.04;99734.31;7390331;19;20022;-67
2023/10/19 07:30:43;;;;;;;14.73;9.70;;;;;;;9.55;79.88;99729.16;7389484;19;20504;-67
2023/10/19 07:33:17;;;;;;;16.10;10.13;;;;;;;9.53;80.06;99734.56;7393434;19;20026;-67
2023/10/19 07:35:47;;;;;;;16.05;9.80;;;;;;;9.55;80.15;99730.97;7395468;19;20751;-66
2023/10/19 07:38:16;;;;;;;15.35;9.88;;;;;;;9.55;80.14;99723.88;7396812;19;20021;-66
2023/10/19 07:40:44;;;;;;;17.83;10.20;;;;;;;9.57;80.27;99735.13;7396697;19;20040;-66
2023/10/19 07:43:11;;;;;;;15.68;9.60;;;;;;;9.58;80.28;99734.19;7395892;19;20427;-66
2023/10/19 07:45:39;;;;;;;14.45;9.23;;;;;;;9.60;80.01;99739.34;7397512;19;20409;-66
2023/10/19 07:48:07;;;;;;;15.38;9.55;;;;;;;9.63;80.10;99734.63;7395516;19;20089;-66
2023/10/19 07:50:36;;;;;;;14.18;9.20;;;;;;;9.66;80.08;99738.81;7396162;19;20506;-66
2023/10/19 07:53:04;;;;;;;13.88;9.10;;;;;;;9.67;79.89;99738.66;7398157;19;20074;-67
2023/10/19 07:55:32;;;;;;;11.52;8.30;;;;;;;9.72;79.55;99744.38;7395823;19;20356;-66
2023/10/19 07:58:00;;;;;;;13.63;8.63;;;;;;;9.72;79.63;99741.75;7396737;19;21397;-67
2023/10/19 08:00:31;;;;;;;12.43;8.52;;;;;;;9.75;79.54;99741.47;7395597;19;20014;-66
2023/10/19 08:02:58;;;;;;;11.02;7.88;;;;;;;9.71;79.83;99742.72;7396690;19;20078;-66
2023/10/19 08:05:26;;;;;;;12.20;7.75;;;;;;;9.69;80.12;99741.16;7397132;19;20014;-66
2023/10/19 08:07:54;;;;;;;11.43;7.13;;;;;;;9.71;79.80;99742.72;7395836;19;20049;-66
2023/10/19 08:10:21;;;;;;;11.00;6.97;;;;;;;9.71;80.09;99747.19;7395803;19;20094;-66
2023/10/19 08:12:49;;;;;;;10.70;6.78;;;;;;;9.71;79.87;99747.19;7396999;19;20034;-66
2023/10/19 08:15:17;;;;;;;9.93;6.80;;;;;;;9.66;80.46;99750.22;7394793;19;20502;-66
2023/10/19 08:17:54;;;;;;;10.88;7.32;;;;;;;9.77;79.89;99747.50;7397319;19;20028;-66
2023/10/19 08:20:31;;;;;;;9.98;6.93;;;;;;;9.78;79.78;99748.31;7395918;19;20018;-67
2023/10/19 08:23:01;;;;;;;11.07;7.10;;;;;;;9.82;80.07;99744.44;7396530;19;20063;-67
2023/10/19 08:25:29;;;;;;;21.65;14.05;;;;;;;9.82;80.01;99741.78;7396395;19;20027;-67
2023/10/19 08:28:17;;;;;;;12.73;7.72;;;;;;;9.79;80.20;99733.28;7395646;19;20014;-67
2023/10/19 08:30:56;;;;;;;8.77;5.90;;;;;;;9.85;80.05;99730.97;7394943;19;20031;-67
2023/10/19 08:33:29;;;;;;;9.73;6.28;;;;;;;9.87;79.79;99731.66;7395496;19;20055;-67
2023/10/19 08:35:57;;;;;;;9.70;7.10;;;;;;;9.87;79.82;99734.28;7394517;19;20360;-67
2023/10/19 08:38:26;;;;;;;10.05;6.43;;;;;;;9.87;80.02;99730.81;7395178;19;20014;-67
2023/10/19 08:40:53;;;;;;;9.93;6.22;;;;;;;9.89;79.97;99742.09;7394651;19;20393;-67
2023/10/19 08:43:21;;;;;;;10.25;6.10;;;;;;;9.90;80.16;99741.97;7396125;19;20125;-67
2023/10/19 08:45:49;;;;;;;9.07;5.82;;;;;;;9.94;80.12;99748.66;7394234;19;20484;-67
2023/10/19 08:48:17;;;;;;;9.23;5.72;;;;;;;10.00;79.71;99750.78;7393611;19;20356;-67
2023/10/19 08:50:46;;;;;;;8.55;5.55;;;;;;;10.00;79.81;99748.13;7394121;19;20023;-66
2023/10/19 08:53:14;;;;;;;8.57;5.40;;;;;;;10.04;79.58;99748.69;7394940;19;20015;-66
2023/10/19 08:55:43;;;;;;;8.15;5.22;;;;;;;10.06;79.76;99751.19;7393676;19;20010;-66
2023/10/19 08:58:16;;;;;;;8.40;5.50;;;;;;;10.07;79.82;99752.88;7394806;19;20018;-67
2023/10/19 09:00:56;;;;;;;7.38;4.97;;;;;;;10.08;79.72;99744.81;7393579;19;20555;-67
2023/10/19 09:03:25;;;;;;;7.97;5.30;;;;;;;10.14;79.77;99740.78;7395631;19;20011;-66
2023/10/19 09:05:54;;;;;;;8.80;5.20;;;;;;;10.17;79.65;99737.88;7393178;19;20376;-66
2023/10/19 09:08:22;;;;;;;8.60;4.78;;;;;;;10.10;80.02;99737.56;7394966;19;20381;-67
2023/10/19 09:10:53;;;;;;;9.50;5.53;;;;;;;10.13;79.76;99739.13;7393973;19;20051;-67
2023/10/19 09:13:22;;;;;;;9.05;5.30;;;;;;;10.15;79.85;99737.16;7395470;19;20675;-67
2023/10/19 09:15:53;;;;;;;8.63;4.97;;;;;;;10.12;79.85;99729.50;7393528;19;20026;-66
2023/10/19 09:18:24;;;;;;;11.80;6.00;;;;;;;10.08;79.74;99736.88;7394410;19;20033;-66
2023/10/19 09:20:52;;;;;;;10.02;5.53;;;;;;;10.02;80.18;99735.59;7394181;19;20033;-66
2023/10/19 09:23:28;;;;;;;11.55;6.28;;;;;;;9.99;80.40;99732.38;7394308;19;20011;-66
2023/10/19 09:25:58;;;;;;;11.48;5.82;;;;;;;10.09;79.86;99733.25;7394048;19;20019;-66
2023/10/19 09:28:26;;;;;;;10.00;5.63;;;;;;;10.12;80.20;99729.50;7396549;19;20013;-66
2023/10/19 09:30:53;;;;;;;7.93;4.90;;;;;;;10.12;80.12;99740.94;7393308;19;20014;-67
2023/10/19 09:33:24;;;;;;;8.55;5.05;;;;;;;10.16;80.07;99736.19;7394381;19;20359;-67
2023/10/19 09:35:56;;;;;;;7.32;4.47;;;;;;;10.17;79.87;99740.50;7393134;19;20042;-67
2023/10/19 09:38:26;;;;;;;7.40;4.20;;;;;;;10.16;80.17;99738.84;7393661;19;20594;-67
2023/10/19 09:40:55;;;;;;;7.10;4.57;;;;;;;10.18;79.95;99732.44;7392863;19;20025;-67
2023/10/19 09:43:44;;;;;;;7.22;4.53;;;;;;;10.27;79.79;99730.84;7393508;19;20022;-67
2023/10/19 09:46:21;;;;;;;6.25;3.97;;;;;;;10.20;80.34;99742.91;7394323;19;20078;-67
2023/10/19 09:48:49;;;;;;;6.38;4.05;;;;;;;10.22;80.05;99735.63;7392998;19;20108;-67
2023/10/19 09:51:19;;;;;;;7.38;4.05;;;;;;;10.23;80.28;99738.16;7391939;19;20365;-67
2023/10/19 09:53:53;;;;;;;6.82;3.83;;;;;;;10.27;79.78;99740.59;7393422;19;20023;-67
2023/10/19 09:56:27;;;;;;;5.78;3.75;;;;;;;10.27;80.09;99738.78;7388848;19;20015;-67
2023/10/19 09:59:02;;;;;;;9.15;4.30;;;;;;;10.25;80.22;99735.41;7390953;19;20038;-67
2023/10/19 10:02:10;;;;;;;8.85;4.60;;;;;;;10.24;80.24;99736.34;7393825;19;20026;-67
2023/10/19 10:04:40;;;;;;;8.80;4.68;;;;;;;10.12;80.78;99734.81;7392987;19;20022;-66
2023/10/19 10:07:09;;;;;;;9.82;4.15;;;;;;;10.16;80.61;99731.75;7394469;19;20094;-67
2023/10/19 10:09:41;;;;;;;9.70;5.20;;;;;;;10.24;80.52;99729.25;7389907;19;20014;-67
2023/10/19 10:12:21;;;;;;;10.38;4.60;;;;;;;10.32;80.21;99733.06;7392835;19;20028;-67
2023/10/19 10:15:01;;;;;;;10.30;5.13;;;;;;;10.31;80.19;99734.03;7393213;19;20022;-67
2023/10/19 10:17:33;;;;;;;8.35;4.70;;;;;;;10.31;80.14;99728.75;7392530;19;20549;-66
2023/10/19 10:20:27;;;;;;;8.38;4.22;;;;;;;10.33;80.09;99727.63;7389771;19;20025;-66
2023/10/19 10:23:26;;;;;;;7.83;4.50;;;;;;;10.26;80.71;99726.50;7391262;19;20026;-67
2023/10/19 10:25:58;;;;;;;8.73;4.88;;;;;;;10.25;80.86;99717.72;7392556;19;20046;-67
2023/10/19 10:28:28;;;;;;;7.25;4.22;;;;;;;10.26;80.58;99723.84;7390486;19;20010;-67
2023/10/19 10:31:29;;;;;;;8.10;4.28;;;;;;;10.34;80.74;99716.09;7391465;19;20022;-66
2023/10/19 10:33:57;;;;;;;6.22;3.67;;;;;;;10.21;80.83;99712.81;7392206;19;20019;-66
2023/10/19 10:36:26;;;;;;;6.78;3.92;;;;;;;10.23;80.72;99713.53;7390850;19;20046;-66
2023/10/19 10:39:05;;;;;;;7.65;4.28;;;;;;;10.32;80.49;99711.88;7388077;19;20015;-67
2023/10/19 10:41:32;;;;;;;6.95;3.90;;;;;;;10.23;80.99;99708.22;7391798;19;20022;-67
2023/10/19 10:44:00;;;;;;;6.03;3.55;;;;;;;10.29;80.81;99709.50;7392287;19;20015;-67
2023/10/19 10:46:31;;;;;;;6.35;3.88;;;;;;;10.35;80.50;99703.69;7392023;19;20018;-67
2023/10/19 10:49:00;;;;;;;5.15;3.38;;;;;;;10.35;80.35;99704.53;7389789;19;20018;-67
2023/10/19 10:51:28;;;;;;;5.60;3.67;;;;;;;10.36;80.39;99708.81;7396265;19;20013;-66
2023/10/19 10:53:57;;;;;;;5.20;3.33;;;;;;;10.39;80.33;99697.97;7395278;19;20010;-66
2023/10/19 10:56:25;;;;;;;6.05;3.53;;;;;;;10.39;80.39;99700.63;7390237;19;20086;-66
2023/10/19 10:58:53;;;;;;;4.28;3.00;;;;;;;10.35;80.29;99701.03;7388955;19;20368;-66
2023/10/19 11:01:32;;;;;;;5.20;3.30;;;;;;;10.44;80.21;99692.25;7391380;19;20078;-66
2023/10/19 11:04:11;;;;;;;5.15;3.10;;;;;;;10.37;80.08;99691.13;7390332;19;20007;-66
2023/10/19 11:06:49;;;;;;;4.68;3.17;;;;;;;10.32;80.25;99694.19;7391329;19;20042;-67
2023/10/19 11:09:21;;;;;;;5.30;3.33;;;;;;;10.23;80.65;99689.72;7393588;19;20046;-67
2023/10/19 11:11:49;;;;;;;5.00;3.45;;;;;;;10.23;80.25;99687.91;7398666;19;20031;-67
2023/10/19 11:14:16;;;;;;;4.40;3.13;;;;;;;10.32;80.26;99693.38;7399224;19;20480;-67
2023/10/19 11:16:44;;;;;;;5.40;3.10;;;;;;;10.31;80.27;99689.88;7394924;19;20018;-67
2023/10/19 11:19:12;;;;;;;4.78;3.22;;;;;;;10.35;79.95;99691.28;7394041;19;20038;-67
2023/10/19 11:21:52;;;;;;;4.88;3.10;;;;;;;10.42;80.28;99686.28;7398402;19;20010;-67
2023/10/19 11:24:26;;;;;;;5.47;3.60;;;;;;;10.40;79.94;99691.69;7397382;19;20025;-67
2023/10/19 11:26:55;;;;;;;6.47;3.70;;;;;;;10.43;79.83;99694.06;7398159;19;20042;-67
2023/10/19 11:29:23;;;;;;;4.78;3.30;;;;;;;10.36;80.00;99692.94;7394606;19;20034;-67
2023/10/19 11:31:59;;;;;;;4.35;3.20;;;;;;;10.41;79.85;99696.00;7398153;19;20022;-67
2023/10/19 11:34:29;;;;;;;5.70;3.50;;;;;;;10.36;80.04;99715.94;7398560;19;20042;-68
2023/10/19 11:37:03;;;;;;;5.70;3.78;;;;;;;10.38;80.19;99721.91;7396202;19;20041;-67
2023/10/19 11:39:31;;;;;;;5.72;3.85;;;;;;;10.33;80.48;99722.31;7395005;19;20021;-67
2023/10/19 11:41:58;;;;;;;6.43;3.72;;;;;;;10.34;80.27;99725.81;7396391;19;20010;-67
2023/10/19 11:44:26;;;;;;;6.57;3.88;;;;;;;10.33;80.27;99711.75;7397429;19;20412;-67
2023/10/19 11:46:53;;;;;;;6.72;3.88;;;;;;;10.29;80.16;99722.75;7398160;19;20361;-67
2023/10/19 11:49:22;;;;;;;5.90;3.72;;;;;;;10.22;80.46;99723.25;7394404;19;20022;-67
2023/10/19 11:51:53;;;;;;;8.50;4.40;;;;;;;10.19;80.53;99723.53;7398056;19;20022;-67
2023/10/19 11:54:21;;;;;;;7.75;4.22;;;;;;;10.16;81.01;99704.47;7396221;19;20015;-67
2023/10/19 11:56:49;;;;;;;5.90;3.75;;;;;;;10.18;80.58;99707.78;7395777;19;20017;-67
2023/10/19 11:59:16;;;;;;;5.20;3.42;;;;;;;10.21;80.27;99702.22;7394465;19;20022;-67
2023/10/19 12:01:44;;;;;;;4.93;3.35;;;;;;;10.13;80.63;99707.38;7397290;19;20078;-67
2023/10/19 12:04:11;;;;;;;6.13;3.90;;;;;;;10.13;80.59;99717.94;7397563;19;20022;-67
2023/10/19 12:06:39;;;;;;;5.45;3.70;;;;;;;10.10;80.35;99707.63;7397418;19;20018;-66
2023/10/19 12:09:14;;;;;;;6.68;4.38;;;;;;;10.09;80.38;99708.63;7393177;19;20384;-66
2023/10/19 12:11:44;;;;;;;6.78;4.20;;;;;;;10.09;80.59;99711.25;7397612;19;20374;-66
2023/10/19 12:14:15;;;;;;;7.80;4.40;;;;;;;10.11;80.56;99701.38;7397726;19;20026;-67
2023/10/19 12:16:43;;;;;;;7.93;4.68;;;;;;;10.11;80.21;99690.78;7395020;19;20022;-67
2023/10/19 12:19:10;;;;;;;6.53;4.45;;;;;;;10.11;80.52;99683.72;7392748;19;21048;-66
2023/10/19 12:21:40;;;;;;;6.95;4.50;;;;;;;10.14;80.32;99695.81;7394240;19;20018;-66